Time;durP1;ratioP1;P1;durP2;ratioP2;P2;SDS_P1;SDS_P2;PMS_P1;PMS_P2;Temp;Humidity;BMP_temperature;BMP_pressure;BME280_temperature;BME280_humidity;BME280_pressure;Samples;Min_cycle;Max_cycle;Signal;HPM_P1;HPM_P2
2023/09/06 00:00:25;;;;;;;3.08;2.45;;;;;;;;;;5099909;28;20229;-77
2023/09/06 00:02:53;;;;;;;6.60;2.72;;;;;;;;;;5100059;28;20218;-77
2023/09/06 00:05:23;;;;;;;2.83;2.42;;;;;;;;;;5100102;28;20206;-76
2023/09/06 00:07:51;;;;;;;3.10;2.30;;;;;;;;;;5100148;28;20242;-77
2023/09/06 00:10:19;;;;;;;2.78;2.50;;;;;;;;;;5100119;28;20226;-77
2023/09/06 00:12:47;;;;;;;3.50;2.60;;;;;;;;;;5099885;28;20213;-77
2023/09/06 00:15:15;;;;;;;3.03;2.70;;;;;;;;;;5100163;28;20202;-77
2023/09/06 00:17:43;;;;;;;3.35;2.53;;;;;;;;;;5099876;28;20213;-77
2023/09/06 00:20:20;;;;;;;4.70;3.13;;;;;;;;;;5099338;28;20750;-77
2023/09/06 00:22:56;;;;;;;3.30;2.78;;;;;;;;;;5100116;28;20214;-77
2023/09/06 00:25:25;;;;;;;5.72;2.80;;;;;;;;;;5099798;28;20644;-77
2023/09/06 00:27:53;;;;;;;4.05;2.53;;;;;;;;;;5099607;28;20209;-76
2023/09/06 00:30:21;;;;;;;7.47;2.72;;;;;;;;;;5099562;28;20224;-78
2023/09/06 00:32:52;;;;;;;3.88;2.25;;;;;;;;;;5099786;28;20718;-77
2023/09/06 00:35:22;;;;;;;2.75;2.20;;;;;;;;;;5099251;28;20421;-77
2023/09/06 00:37:50;;;;;;;2.60;2.40;;;;;;;;;;5099654;28;20205;-76
2023/09/06 00:40:21;;;;;;;3.33;2.20;;;;;;;;;;5099274;28;20222;-77
2023/09/06 00:42:50;;;;;;;2.72;2.53;;;;;;;;;;5099496;28;20288;-77
2023/09/06 00:45:22;;;;;;;3.08;2.40;;;;;;;;;;5099533;28;20294;-77
2023/09/06 00:47:50;;;;;;;3.15;2.85;;;;;;;;;;5099183;28;20655;-77
2023/09/06 00:50:19;;;;;;;2.45;2.25;;;;;;;;;;5098734;28;20285;-76
2023/09/06 00:52:47;;;;;;;4.97;2.70;;;;;;;;;;5099338;28;20214;-76
2023/09/06 00:55:16;;;;;;;2.60;2.40;;;;;;;;;;5098599;28;20226;-77
2023/09/06 00:57:45;;;;;;;4.07;2.30;;;;;;;;;;5088023;28;20245;-77
2023/09/06 01:00:17;;;;;;;4.13;2.63;;;;;;;;;;5098881;28;20262;-76
2023/09/06 01:02:45;;;;;;;3.03;2.30;;;;;;;;;;5098796;28;20211;-76
2023/09/06 01:05:13;;;;;;;2.27;2.10;;;;;;;;;;5098863;28;20209;-75
2023/09/06 01:07:43;;;;;;;4.05;2.30;;;;;;;;;;5098960;28;20233;-76
2023/09/06 01:10:11;;;;;;;4.67;2.30;;;;;;;;;;5099086;28;20229;-77
2023/09/06 01:12:40;;;;;;;5.13;2.33;;;;;;;;;;5098605;28;20210;-76
2023/09/06 01:15:10;;;;;;;6.10;2.37;;;;;;;;;;5098829;28;20207;-77
2023/09/06 01:17:41;;;;;;;3.13;2.30;;;;;;;;;;5098831;28;20203;-77
2023/09/06 01:20:24;;;;;;;2.40;2.13;;;;;;;;;;5098255;28;20323;-77
2023/09/06 01:22:55;;;;;;;5.23;2.47;;;;;;;;;;5098457;28;20330;-77
2023/09/06 01:25:24;;;;;;;3.43;2.20;;;;;;;;;;5098705;28;20302;-77
2023/09/06 01:27:52;;;;;;;4.97;2.53;;;;;;;;;;5098707;28;20211;-77
2023/09/06 01:30:20;;;;;;;3.80;2.17;;;;;;;;;;5098308;28;20225;-77
2023/09/06 01:32:48;;;;;;;3.03;2.20;;;;;;;;;;5098386;28;20209;-77
2023/09/06 01:35:16;;;;;;;3.58;2.47;;;;;;;;;;5098315;28;20264;-77
2023/09/06 01:37:44;;;;;;;2.40;2.20;;;;;;;;;;5098393;28;20611;-77
2023/09/06 01:40:16;;;;;;;3.00;1.90;;;;;;;;;;5097820;28;20229;-77
2023/09/06 01:42:46;;;;;;;2.83;2.10;;;;;;;;;;5098560;28;20226;-77
2023/09/06 01:45:17;;;;;;;3.80;2.20;;;;;;;;;;5098175;28;20232;-77
2023/09/06 01:47:46;;;;;;;2.83;2.10;;;;;;;;;;5098282;28;20211;-77
2023/09/06 01:50:19;;;;;;;4.40;2.67;;;;;;;;;;5097568;28;20288;-77
2023/09/06 01:52:47;;;;;;;2.70;2.50;;;;;;;;;;5098079;28;20204;-77
2023/09/06 01:55:15;;;;;;;2.85;2.05;;;;;;;;;;5098223;28;20237;-77
2023/09/06 01:57:43;;;;;;;4.93;2.40;;;;;;;;;;5097931;28;20242;-77
2023/09/06 02:00:22;;;;;;;2.30;2.10;;;;;;;;;;5097787;28;20319;-77
2023/09/06 02:02:51;;;;;;;2.37;2.17;;;;;;;;;;5097913;28;20551;-76
2023/09/06 02:05:19;;;;;;;3.27;2.37;;;;;;;;;;5097617;28;20279;-76
2023/09/06 02:07:47;;;;;;;6.23;2.00;;;;;;;;;;5097875;28;20217;-77
2023/09/06 02:10:15;;;;;;;2.73;2.07;;;;;;;;;;5097716;28;20229;-76
2023/09/06 02:12:44;;;;;;;4.63;2.30;;;;;;;;;;5097897;28;20255;-77
2023/09/06 02:15:14;;;;;;;3.93;2.07;;;;;;;;;;5098030;28;20209;-78
2023/09/06 02:17:43;;;;;;;5.03;2.07;;;;;;;;;;5097811;28;20547;-77
2023/09/06 02:20:17;;;;;;;3.27;2.03;;;;;;;;;;5097509;28;20238;-76
2023/09/06 02:22:46;;;;;;;2.47;2.20;;;;;;;;;;5097753;28;20200;-77
2023/09/06 02:25:15;;;;;;;3.00;2.10;;;;;;;;;;5097820;28;20259;-77
2023/09/06 02:27:43;;;;;;;4.03;2.90;;;;;;;;;;5098035;28;20245;-76
2023/09/06 02:30:13;;;;;;;3.47;2.30;;;;;;;;;;5097933;28;20320;-77
2023/09/06 02:32:41;;;;;;;3.60;2.43;;;;;;;;;;5098052;28;20207;-78
2023/09/06 02:35:10;;;;;;;2.40;2.20;;;;;;;;;;5097759;28;20214;-77
2023/09/06 02:37:38;;;;;;;5.37;2.00;;;;;;;;;;5097796;28;20562;-77
2023/09/06 02:40:10;;;;;;;3.10;1.83;;;;;;;;;;5097546;28;20227;-77
2023/09/06 02:42:38;;;;;;;4.53;2.17;;;;;;;;;;5098003;28;20288;-77
2023/09/06 02:45:09;;;;;;;3.77;2.37;;;;;;;;;;5097771;28;20204;-77
2023/09/06 02:47:47;;;;;;;2.40;2.20;;;;;;;;;;5097545;28;20214;-77
2023/09/06 02:50:18;;;;;;;4.87;2.20;;;;;;;;;;5097182;28;20236;-77
2023/09/06 02:52:46;;;;;;;2.50;2.30;;;;;;;;;;5097731;28;20206;-77
2023/09/06 02:55:14;;;;;;;3.43;2.27;;;;;;;;;;5097708;28;20208;-76
2023/09/06 02:57:42;;;;;;;7.07;2.50;;;;;;;;;;5095401;28;20698;-78
2023/09/06 03:00:24;;;;;;;4.47;2.53;;;;;;;;;;5093487;28;20236;-78
2023/09/06 03:02:58;;;;;;;3.50;2.37;;;;;;;;;;5097691;28;20295;-76
2023/09/06 03:05:28;;;;;;;5.60;2.43;;;;;;;;;;5097218;28;20656;-76
2023/09/06 03:07:56;;;;;;;4.90;2.83;;;;;;;;;;5097473;28;20203;-76
2023/09/06 03:10:24;;;;;;;5.83;2.50;;;;;;;;;;5097432;28;20221;-77
2023/09/06 03:12:55;;;;;;;5.63;2.57;;;;;;;;;;5092504;28;20212;-78
2023/09/06 03:15:28;;;;;;;4.00;2.40;;;;;;;;;;5091999;28;20238;-77
2023/09/06 03:18:01;;;;;;;3.43;2.40;;;;;;;;;;5098933;28;20207;-75
2023/09/06 03:20:33;;;;;;;3.40;2.10;;;;;;;;;;5100420;28;20226;-76
2023/09/06 03:23:06;;;;;;;5.67;2.90;;;;;;;;;;5101068;28;20216;-76
2023/09/06 03:25:40;;;;;;;3.53;2.17;;;;;;;;;;5100745;28;20614;-76
2023/09/06 03:28:08;;;;;;;4.93;2.53;;;;;;;;;;5100814;28;20215;-76
2023/09/06 03:30:38;;;;;;;3.47;2.57;;;;;;;;;;5100003;28;20232;-75
2023/09/06 03:33:08;;;;;;;3.87;1.93;;;;;;;;;;5097496;28;20261;-76
2023/09/06 03:35:37;;;;;;;6.43;2.57;;;;;;;;;;5100537;28;20208;-77
2023/09/06 03:38:08;;;;;;;3.23;2.40;;;;;;;;;;5101536;28;20201;-76
2023/09/06 03:40:37;;;;;;;2.50;2.07;;;;;;;;;;5101950;28;20282;-75
2023/09/06 03:43:14;;;;;;;4.73;2.20;;;;;;;;;;5100420;28;20267;-76
2023/09/06 03:45:44;;;;;;;3.47;2.50;;;;;;;;;;5100503;28;20214;-75
2023/09/06 03:48:17;;;;;;;3.70;2.43;;;;;;;;;;5100404;28;20265;-76
2023/09/06 03:50:46;;;;;;;3.83;2.60;;;;;;;;;;5100193;28;20220;-75
2023/09/06 03:53:15;;;;;;;4.40;2.47;;;;;;;;;;5100302;28;20220;-76
2023/09/06 03:55:43;;;;;;;3.30;2.50;;;;;;;;;;5100474;28;20285;-76
2023/09/06 03:58:11;;;;;;;4.13;2.67;;;;;;;;;;5100059;28;20238;-76
2023/09/06 04:00:43;;;;;;;2.87;2.33;;;;;;;;;;5100092;28;20226;-76
2023/09/06 04:03:11;;;;;;;4.90;1.97;;;;;;;;;;5100119;28;20207;-75
2023/09/06 04:05:45;;;;;;;4.63;2.40;;;;;;;;;;5099914;28;20207;-76
2023/09/06 04:08:17;;;;;;;2.37;2.17;;;;;;;;;;5099856;28;20219;-77
2023/09/06 04:10:46;;;;;;;2.90;2.20;;;;;;;;;;5100075;28;20234;-75
2023/09/06 04:13:15;;;;;;;2.73;2.00;;;;;;;;;;5100103;28;20208;-76
2023/09/06 04:15:43;;;;;;;3.77;2.10;;;;;;;;;;5099962;28;20198;-76
2023/09/06 04:18:12;;;;;;;3.77;2.30;;;;;;;;;;5099839;28;20660;-77
2023/09/06 04:20:46;;;;;;;2.43;2.10;;;;;;;;;;5099227;28;20232;-76
2023/09/06 04:23:16;;;;;;;2.93;2.07;;;;;;;;;;5098936;28;20671;-76
2023/09/06 04:25:44;;;;;;;3.37;2.03;;;;;;;;;;5099562;28;20202;-76
2023/09/06 04:28:14;;;;;;;4.40;2.30;;;;;;;;;;5098210;28;20211;-76
2023/09/06 04:30:43;;;;;;;3.77;2.40;;;;;;;;;;5099391;28;20238;-76
2023/09/06 04:33:14;;;;;;;5.17;2.20;;;;;;;;;;5099317;28;20219;-74
2023/09/06 04:35:43;;;;;;;5.70;2.30;;;;;;;;;;5099380;28;20203;-76
2023/09/06 04:38:12;;;;;;;5.27;2.30;;;;;;;;;;5099334;28;20220;-76
2023/09/06 04:40:43;;;;;;;3.53;2.33;;;;;;;;;;5099411;28;20225;-76
2023/09/06 04:43:11;;;;;;;4.97;2.37;;;;;;;;;;5098515;28;20198;-76
2023/09/06 04:45:39;;;;;;;3.17;2.27;;;;;;;;;;5099147;28;20228;-77
2023/09/06 04:48:09;;;;;;;5.83;2.70;;;;;;;;;;5099004;28;20203;-76
2023/09/06 04:50:38;;;;;;;4.83;2.30;;;;;;;;;;5098771;28;20255;-77
2023/09/06 04:53:07;;;;;;;3.43;2.47;;;;;;;;;;5099135;28;20206;-76
2023/09/06 04:55:36;;;;;;;6.67;3.03;;;;;;;;;;5099186;28;20207;-76
2023/09/06 04:58:06;;;;;;;3.80;2.80;;;;;;;;;;5098875;28;20244;-74
2023/09/06 05:00:37;;;;;;;5.80;2.53;;;;;;;;;;5098668;28;20261;-74
2023/09/06 05:03:08;;;;;;;2.87;2.30;;;;;;;;;;5095665;28;20304;-72
2023/09/06 05:05:36;;;;;;;3.50;2.50;;;;;;;;;;5093781;28;20215;-75
2023/09/06 05:08:05;;;;;;;2.70;2.37;;;;;;;;;;5098732;28;20265;-74
2023/09/06 05:10:35;;;;;;;3.00;2.70;;;;;;;;;;5098490;28;20258;-74
2023/09/06 05:13:07;;;;;;;3.30;2.43;;;;;;;;;;5096140;28;20724;-74
2023/09/06 05:15:37;;;;;;;5.70;3.03;;;;;;;;;;5090030;28;20203;-74
2023/09/06 05:18:06;;;;;;;2.80;2.40;;;;;;;;;;5089696;28;20272;-73
2023/09/06 05:20:35;;;;;;;4.23;2.27;;;;;;;;;;5098608;28;20302;-72
2023/09/06 05:23:04;;;;;;;3.37;2.57;;;;;;;;;;5098265;28;20225;-74
2023/09/06 05:25:32;;;;;;;3.50;2.50;;;;;;;;;;5098747;28;20211;-74
2023/09/06 05:28:01;;;;;;;3.53;2.03;;;;;;;;;;5098585;28;20238;-74
2023/09/06 05:30:30;;;;;;;3.30;2.33;;;;;;;;;;5098485;28;20227;-74
2023/09/06 05:32:59;;;;;;;4.10;2.60;;;;;;;;;;5098542;28;20205;-74
2023/09/06 05:35:27;;;;;;;4.13;3.07;;;;;;;;;;5098089;28;20204;-74
2023/09/06 05:37:55;;;;;;;6.43;2.47;;;;;;;;;;5098522;28;20210;-74
2023/09/06 05:40:23;;;;;;;5.37;2.70;;;;;;;;;;5096742;28;20241;-74
2023/09/06 05:42:51;;;;;;;4.33;2.47;;;;;;;;;;5100840;28;20288;-75
2023/09/06 05:45:20;;;;;;;4.20;2.80;;;;;;;;;;5097951;28;20227;-73
2023/09/06 05:47:48;;;;;;;5.30;2.70;;;;;;;;;;5098162;28;20207;-74
2023/09/06 05:50:18;;;;;;;4.20;3.10;;;;;;;;;;5097812;28;20232;-74
2023/09/06 05:52:46;;;;;;;3.30;3.00;;;;;;;;;;5097434;28;20200;-74
2023/09/06 05:55:14;;;;;;;3.20;2.83;;;;;;;;;;5098030;28;20206;-75
2023/09/06 05:57:42;;;;;;;4.37;2.90;;;;;;;;;;5097649;28;20264;-75
2023/09/06 06:00:15;;;;;;;3.70;3.27;;;;;;;;;;5097939;28;20259;-75
2023/09/06 06:02:44;;;;;;;5.10;3.07;;;;;;;;;;5097497;28;20227;-75
2023/09/06 06:05:13;;;;;;;6.67;3.33;;;;;;;;;;5097488;28;20232;-74
2023/09/06 06:07:44;;;;;;;4.13;2.93;;;;;;;;;;5097731;28;20564;-74
2023/09/06 06:10:12;;;;;;;4.27;2.83;;;;;;;;;;5102482;28;20227;-75
2023/09/06 06:12:41;;;;;;;4.47;3.40;;;;;;;;;;5097595;28;20209;-75
2023/09/06 06:15:12;;;;;;;6.00;3.00;;;;;;;;;;5098032;28;20216;-75
2023/09/06 06:17:40;;;;;;;3.10;2.73;;;;;;;;;;5097892;28;20212;-75
2023/09/06 06:20:10;;;;;;;7.13;2.90;;;;;;;;;;5097225;28;20239;-74
2023/09/06 06:22:39;;;;;;;4.97;3.20;;;;;;;;;;5097460;28;20693;-75
2023/09/06 06:25:10;;;;;;;4.30;2.70;;;;;;;;;;5097447;28;20572;-75
2023/09/06 06:27:39;;;;;;;3.87;2.77;;;;;;;;;;5098199;28;20208;-75
2023/09/06 06:30:08;;;;;;;3.43;2.83;;;;;;;;;;5097573;28;20312;-76
2023/09/06 06:32:37;;;;;;;3.17;2.87;;;;;;;;;;5097771;28;20208;-77
2023/09/06 06:35:06;;;;;;;4.37;2.67;;;;;;;;;;5092804;28;20304;-75
2023/09/06 06:37:34;;;;;;;3.20;2.43;;;;;;;;;;5098005;28;20220;-75
2023/09/06 06:40:05;;;;;;;5.63;3.03;;;;;;;;;;5097260;28;20221;-74
2023/09/06 06:42:38;;;;;;;3.73;2.43;;;;;;;;;;5097758;28;20227;-75
2023/09/06 06:45:09;;;;;;;3.07;1.77;;;;;;;;;;5104567;28;20262;-75
2023/09/06 06:47:37;;;;;;;4.57;2.90;;;;;;;;;;5097704;28;20210;-75
2023/09/06 06:50:06;;;;;;;5.10;2.77;;;;;;;;;;5097156;28;20233;-75
2023/09/06 06:52:36;;;;;;;4.20;2.63;;;;;;;;;;5099534;28;20206;-74
2023/09/06 06:55:05;;;;;;;6.00;2.87;;;;;;;;;;5096418;28;20209;-73
2023/09/06 06:57:35;;;;;;;6.13;2.93;;;;;;;;;;5096599;28;20260;-76
2023/09/06 07:00:05;;;;;;;3.67;2.57;;;;;;;;;;5101334;28;20223;-74
2023/09/06 07:02:34;;;;;;;5.07;3.00;;;;;;;;;;5113780;28;20232;-75
2023/09/06 07:05:03;;;;;;;5.43;3.10;;;;;;;;;;5101327;28;20233;-77
2023/09/06 07:07:31;;;;;;;2.53;2.33;;;;;;;;;;5101494;28;20234;-76
2023/09/06 07:10:00;;;;;;;7.27;2.90;;;;;;;;;;5101331;28;20317;-75
2023/09/06 07:12:28;;;;;;;7.53;2.87;;;;;;;;;;5100772;28;20272;-75
2023/09/06 07:14:58;;;;;;;3.93;2.67;;;;;;;;;;5098782;28;20236;-75
2023/09/06 07:17:26;;;;;;;4.80;2.70;;;;;;;;;;5098648;28;20230;-75
2023/09/06 07:19:55;;;;;;;2.93;2.63;;;;;;;;;;5113758;28;20234;-76
2023/09/06 07:22:23;;;;;;;6.27;3.37;;;;;;;;;;5100728;28;20208;-76
2023/09/06 07:24:51;;;;;;;5.87;3.10;;;;;;;;;;5100609;28;20668;-75
2023/09/06 07:27:20;;;;;;;3.93;2.63;;;;;;;;;;5100921;28;20207;-75
2023/09/06 07:29:49;;;;;;;4.20;2.77;;;;;;;;;;5100945;28;20225;-75
2023/09/06 07:32:19;;;;;;;5.00;2.97;;;;;;;;;;5100529;28;20212;-74
2023/09/06 07:34:47;;;;;;;7.00;2.97;;;;;;;;;;5098354;28;20208;-75
2023/09/06 07:37:15;;;;;;;3.87;2.70;;;;;;;;;;5100448;28;20639;-75
2023/09/06 07:39:43;;;;;;;3.20;2.53;;;;;;;;;;5100501;28;20253;-75
2023/09/06 07:42:11;;;;;;;3.67;2.70;;;;;;;;;;5100261;28;20544;-74
2023/09/06 07:44:39;;;;;;;2.97;2.20;;;;;;;;;;5100451;28;20235;-78
2023/09/06 07:47:08;;;;;;;4.43;2.83;;;;;;;;;;5100555;28;20289;-77
2023/09/06 07:49:38;;;;;;;5.78;3.30;;;;;;;;;;5100153;28;20205;-77
2023/09/06 07:52:08;;;;;;;3.50;2.65;;;;;;;;;;5096775;28;20201;-72
2023/09/06 07:54:36;;;;;;;3.13;2.80;;;;;;;;;;5099425;28;20206;-76
2023/09/06 07:57:04;;;;;;;3.53;2.78;;;;;;;;;;5099782;28;20236;-76
2023/09/06 07:59:32;;;;;;;4.70;2.83;;;;;;;;;;5099884;28;20213;-77
2023/09/06 08:02:01;;;;;;;6.25;3.30;;;;;;;;;;5099745;28;20198;-76
2023/09/06 08:04:29;;;;;;;3.70;3.08;;;;;;;;;;5098615;28;20227;-75
2023/09/06 08:06:58;;;;;;;3.55;2.83;;;;;;;;;;5099862;28;20276;-75
2023/09/06 08:09:26;;;;;;;4.35;2.75;;;;;;;;;;5096541;28;20255;-74
2023/09/06 08:11:54;;;;;;;7.20;3.15;;;;;;;;;;5093466;28;20257;-75
2023/09/06 08:14:22;;;;;;;3.78;3.00;;;;;;;;;;5099426;28;20231;-76
2023/09/06 08:16:50;;;;;;;3.10;2.63;;;;;;;;;;5099817;28;20215;-77
2023/09/06 08:19:19;;;;;;;3.30;3.00;;;;;;;;;;5097119;28;20611;-77
2023/09/06 08:21:47;;;;;;;2.75;2.55;;;;;;;;;;5094683;28;20600;-78
2023/09/06 08:24:17;;;;;;;7.07;2.97;;;;;;;;;;5099443;28;20313;-76
2023/09/06 08:26:47;;;;;;;4.90;2.90;;;;;;;;;;5105434;28;20572;-77
2023/09/06 08:29:15;;;;;;;5.15;2.67;;;;;;;;;;5099382;28;20209;-77
2023/09/06 08:31:43;;;;;;;3.17;2.72;;;;;;;;;;5099606;28;20267;-76
2023/09/06 08:34:12;;;;;;;6.47;3.03;;;;;;;;;;5099435;28;20254;-77
2023/09/06 08:36:40;;;;;;;3.88;2.97;;;;;;;;;;5097835;28;20629;-76
2023/09/06 08:39:09;;;;;;;2.67;2.47;;;;;;;;;;5099402;28;20677;-78
2023/09/06 08:41:39;;;;;;;4.53;2.65;;;;;;;;;;5095586;28;20221;-77
2023/09/06 08:44:09;;;;;;;5.63;2.92;;;;;;;;;;5111504;28;20255;-76
2023/09/06 08:46:41;;;;;;;3.08;2.88;;;;;;;;;;5098898;28;20206;-76
2023/09/06 08:49:10;;;;;;;7.80;2.83;;;;;;;;;;5098503;28;20215;-76
2023/09/06 08:51:39;;;;;;;5.93;2.65;;;;;;;;;;5099175;28;20233;-75
2023/09/06 08:54:07;;;;;;;3.08;2.58;;;;;;;;;;5098899;28;20202;-77
2023/09/06 08:56:38;;;;;;;5.43;3.00;;;;;;;;;;5098606;28;20672;-75
2023/09/06 08:59:10;;;;;;;4.72;2.88;;;;;;;;;;5099270;28;20216;-73
2023/09/06 09:01:38;;;;;;;5.55;2.78;;;;;;;;;;5097202;28;20229;-77
2023/09/06 09:04:09;;;;;;;5.03;2.67;;;;;;;;;;5096501;28;20228;-74
2023/09/06 09:06:42;;;;;;;4.40;2.55;;;;;;;;;;5090807;28;20208;-76
2023/09/06 09:09:14;;;;;;;3.30;3.00;;;;;;;;;;5098908;28;20208;-76
2023/09/06 09:11:45;;;;;;;4.38;2.85;;;;;;;;;;5098940;28;20235;-76
2023/09/06 09:14:22;;;;;;;4.28;3.05;;;;;;;;;;5098696;28;20288;-77
2023/09/06 09:16:53;;;;;;;2.88;2.67;;;;;;;;;;5099774;28;20217;-77
2023/09/06 09:19:22;;;;;;;3.63;2.85;;;;;;;;;;5096372;28;20212;-76
2023/09/06 09:21:50;;;;;;;2.83;2.63;;;;;;;;;;5092502;28;20700;-76
2023/09/06 09:24:27;;;;;;;3.28;2.75;;;;;;;;;;5098514;28;20225;-76
2023/09/06 09:26:57;;;;;;;3.30;2.80;;;;;;;;;;5098564;28;20211;-76
2023/09/06 09:29:28;;;;;;;3.38;2.50;;;;;;;;;;5098574;28;20208;-77
2023/09/06 09:32:00;;;;;;;3.50;2.90;;;;;;;;;;5098187;28;20692;-76
2023/09/06 09:34:29;;;;;;;3.03;2.78;;;;;;;;;;5098242;28;20201;-76
2023/09/06 09:36:57;;;;;;;6.40;2.90;;;;;;;;;;5098340;28;20205;-76
2023/09/06 09:39:26;;;;;;;3.65;2.72;;;;;;;;;;5098058;28;20215;-77
2023/09/06 09:41:57;;;;;;;3.70;2.78;;;;;;;;;;5098265;28;20225;-74
2023/09/06 09:44:28;;;;;;;4.45;3.70;;;;;;;;;;5086293;28;20221;-78
2023/09/06 09:46:57;;;;;;;3.25;2.80;;;;;;;;;;5098017;28;20227;-76
2023/09/06 09:49:26;;;;;;;5.97;3.10;;;;;;;;;;5093919;28;20205;-77
2023/09/06 09:51:54;;;;;;;5.45;3.20;;;;;;;;;;5094975;28;20236;-77
2023/09/06 09:54:24;;;;;;;3.30;3.00;;;;;;;;;;5088398;28;20815;-78
2023/09/06 09:57:02;;;;;;;3.17;2.78;;;;;;;;;;5093796;28;20233;-77
2023/09/06 09:59:33;;;;;;;4.75;3.10;;;;;;;;;;5098077;28;20205;-78
2023/09/06 10:02:02;;;;;;;4.80;3.08;;;;;;;;;;5097788;28;20204;-77
2023/09/06 10:04:30;;;;;;;5.72;3.03;;;;;;;;;;5097459;28;20228;-74
2023/09/06 10:06:59;;;;;;;2.95;2.65;;;;;;;;;;5097519;28;20205;-73
2023/09/06 10:09:28;;;;;;;3.58;2.78;;;;;;;;;;5094978;28;20209;-73
2023/09/06 10:11:57;;;;;;;3.17;2.85;;;;;;;;;;5097466;28;20274;-73
2023/09/06 10:14:26;;;;;;;3.45;3.13;;;;;;;;;;5097343;28;20197;-73
2023/09/06 10:16:56;;;;;;;5.63;2.72;;;;;;;;;;5097762;28;20255;-73
2023/09/06 10:19:27;;;;;;;5.70;2.95;;;;;;;;;;5096955;28;20204;-73
2023/09/06 10:22:05;;;;;;;5.80;2.65;;;;;;;;;;5090235;28;20201;-73
2023/09/06 10:24:35;;;;;;;3.70;2.58;;;;;;;;;;5097115;28;20282;-74
2023/09/06 10:27:04;;;;;;;3.95;2.88;;;;;;;;;;5096985;28;20197;-74
2023/09/06 10:29:32;;;;;;;3.05;2.85;;;;;;;;;;5101768;28;20334;-72
2023/09/06 10:32:03;;;;;;;4.03;3.25;;;;;;;;;;5096202;28;20197;-73
2023/09/06 10:34:34;;;;;;;4.28;2.80;;;;;;;;;;5101259;28;20565;-74
2023/09/06 10:37:06;;;;;;;9.13;3.35;;;;;;;;;;5101867;28;20217;-72
2023/09/06 10:39:34;;;;;;;4.55;2.80;;;;;;;;;;5101415;28;20209;-70
2023/09/06 10:42:17;;;;;;;4.65;3.90;;;;;;;;;;5102351;28;20206;-73
2023/09/06 10:45:03;;;;;;;3.85;3.08;;;;;;;;;;5101337;28;20221;-73
2023/09/06 10:47:34;;;;;;;6.72;3.50;;;;;;;;;;5098662;28;20636;-74
2023/09/06 10:50:09;;;;;;;3.95;3.25;;;;;;;;;;5100588;28;20217;-73
2023/09/06 10:52:44;;;;;;;5.40;3.13;;;;;;;;;;5100619;28;20212;-74
2023/09/06 10:55:14;;;;;;;5.45;3.40;;;;;;;;;;5098888;28;20201;-76
2023/09/06 10:57:50;;;;;;;5.38;3.28;;;;;;;;;;5101017;28;20235;-74
2023/09/06 11:00:19;;;;;;;3.13;2.83;;;;;;;;;;5100927;28;20231;-74
2023/09/06 11:03:06;;;;;;;4.57;2.92;;;;;;;;;;5100986;28;20653;-73
2023/09/06 11:05:37;;;;;;;6.88;3.03;;;;;;;;;;5098424;28;20221;-73
2023/09/06 11:08:06;;;;;;;3.30;3.00;;;;;;;;;;5100489;28;20198;-73
2023/09/06 11:10:36;;;;;;;4.22;3.00;;;;;;;;;;5100766;28;20221;-73
2023/09/06 11:13:09;;;;;;;5.80;3.28;;;;;;;;;;5088481;28;20570;-74
2023/09/06 11:15:37;;;;;;;3.33;3.03;;;;;;;;;;5100901;28;20201;-73
2023/09/06 11:18:06;;;;;;;4.25;2.85;;;;;;;;;;5100353;28;20211;-74
2023/09/06 11:20:36;;;;;;;7.10;3.15;;;;;;;;;;5100159;28;20274;-74
2023/09/06 11:23:05;;;;;;;5.47;3.25;;;;;;;;;;5099032;28;20606;-74
2023/09/06 11:25:33;;;;;;;3.20;2.70;;;;;;;;;;5100394;28;20688;-75
2023/09/06 11:28:02;;;;;;;4.00;3.53;;;;;;;;;;5100655;28;20217;-76
2023/09/06 11:30:32;;;;;;;5.18;2.83;;;;;;;;;;5100701;28;20228;-74
2023/09/06 11:33:04;;;;;;;3.28;2.90;;;;;;;;;;5100611;28;20209;-75
2023/09/06 11:35:34;;;;;;;3.13;2.83;;;;;;;;;;5099399;28;20197;-74
2023/09/06 11:38:04;;;;;;;4.05;3.10;;;;;;;;;;5098109;28;20278;-75
2023/09/06 11:40:34;;;;;;;7.50;2.97;;;;;;;;;;5098729;28;20225;-74
2023/09/06 11:43:04;;;;;;;4.72;2.90;;;;;;;;;;5098885;28;20588;-74
2023/09/06 11:45:33;;;;;;;5.20;2.65;;;;;;;;;;5098606;28;20587;-74
2023/09/06 11:48:05;;;;;;;6.00;3.28;;;;;;;;;;5098895;28;20206;-74
2023/09/06 11:50:34;;;;;;;4.28;3.38;;;;;;;;;;5100117;28;20253;-74
2023/09/06 11:53:04;;;;;;;4.82;2.83;;;;;;;;;;5100331;28;20205;-75
2023/09/06 11:55:34;;;;;;;5.82;2.90;;;;;;;;;;5100232;28;20267;-74
2023/09/06 11:58:03;;;;;;;6.40;3.30;;;;;;;;;;5100098;28;20241;-73
2023/09/06 12:00:38;;;;;;;6.40;3.17;;;;;;;;;;5100200;28;20225;-74
2023/09/06 12:03:13;;;;;;;2.90;2.65;;;;;;;;;;5100182;28;20209;-75
2023/09/06 12:05:42;;;;;;;3.45;2.90;;;;;;;;;;5100158;28;20229;-73
2023/09/06 12:08:19;;;;;;;8.95;3.22;;;;;;;;;;5099837;28;20201;-76
2023/09/06 12:10:52;;;;;;;4.45;2.85;;;;;;;;;;5099826;28;20222;-74
2023/09/06 12:13:26;;;;;;;5.32;3.20;;;;;;;;;;5100157;28;20205;-74
2023/09/06 12:15:54;;;;;;;4.85;2.80;;;;;;;;;;5100150;28;20205;-75
2023/09/06 12:18:22;;;;;;;3.70;2.90;;;;;;;;;;5099692;28;20209;-75
2023/09/06 12:20:50;;;;;;;4.78;3.25;;;;;;;;;;5099626;28;20229;-75
2023/09/06 12:23:20;;;;;;;4.13;3.15;;;;;;;;;;5099556;28;20732;-74
2023/09/06 12:25:50;;;;;;;4.40;3.00;;;;;;;;;;5099821;28;20261;-76
2023/09/06 12:28:18;;;;;;;5.78;3.03;;;;;;;;;;5099539;28;20205;-75
2023/09/06 12:30:46;;;;;;;5.22;3.10;;;;;;;;;;5099610;28;20221;-75
2023/09/06 12:33:14;;;;;;;4.63;3.30;;;;;;;;;;5099108;28;20637;-74
2023/09/06 12:35:44;;;;;;;4.07;3.00;;;;;;;;;;5099705;28;20228;-75
2023/09/06 12:38:12;;;;;;;4.35;3.25;;;;;;;;;;5099789;28;20218;-74
2023/09/06 12:40:43;;;;;;;8.40;3.03;;;;;;;;;;5099479;28;20217;-75
2023/09/06 12:43:14;;;;;;;4.03;3.15;;;;;;;;;;5099459;28;20205;-75
2023/09/06 12:45:42;;;;;;;4.80;3.00;;;;;;;;;;5099553;28;20225;-75
2023/09/06 12:48:10;;;;;;;4.78;2.88;;;;;;;;;;5099028;28;20198;-75
2023/09/06 12:50:38;;;;;;;4.53;2.90;;;;;;;;;;5098834;28;20251;-74
2023/09/06 12:53:07;;;;;;;7.57;2.65;;;;;;;;;;5099071;28;20288;-75
2023/09/06 12:55:35;;;;;;;4.88;3.33;;;;;;;;;;5099075;28;20201;-75
2023/09/06 12:58:05;;;;;;;4.97;3.33;;;;;;;;;;5098926;28;20425;-75
2023/09/06 13:00:34;;;;;;;5.63;3.20;;;;;;;;;;5096727;28;20300;-75
2023/09/06 13:03:03;;;;;;;4.22;3.25;;;;;;;;;;5091014;28;20209;-75
2023/09/06 13:05:31;;;;;;;4.15;2.90;;;;;;;;;;5098948;28;20274;-72
2023/09/06 13:08:00;;;;;;;6.97;3.42;;;;;;;;;;5098774;28;20227;-72
2023/09/06 13:10:28;;;;;;;5.97;3.25;;;;;;;;;;5098837;28;20229;-72
2023/09/06 13:12:56;;;;;;;7.15;3.10;;;;;;;;;;5099234;28;20209;-67
2023/09/06 13:15:24;;;;;;;6.90;3.15;;;;;;;;;;5092503;28;20202;-69
2023/09/06 13:17:54;;;;;;;6.38;3.38;;;;;;;;;;5094175;28;20209;-69
2023/09/06 13:20:22;;;;;;;3.85;2.95;;;;;;;;;;5086652;28;20321;-75
2023/09/06 13:22:50;;;;;;;5.15;2.80;;;;;;;;;;5086493;28;20209;-72
2023/09/06 13:25:18;;;;;;;6.15;3.25;;;;;;;;;;5098398;28;20209;-71
2023/09/06 13:27:46;;;;;;;5.47;3.70;;;;;;;;;;5098013;28;20590;-69
2023/09/06 13:30:14;;;;;;;3.30;3.05;;;;;;;;;;5098809;28;20240;-67
2023/09/06 13:32:42;;;;;;;4.82;3.13;;;;;;;;;;5098345;28;20231;-68
2023/09/06 13:35:12;;;;;;;5.40;2.97;;;;;;;;;;5098037;28;20205;-67
2023/09/06 13:37:41;;;;;;;5.30;3.20;;;;;;;;;;5097239;28;20197;-68
2023/09/06 13:40:11;;;;;;;4.13;2.90;;;;;;;;;;5098393;28;20220;-68
2023/09/06 13:42:39;;;;;;;3.63;3.22;;;;;;;;;;5097867;28;20209;-67
2023/09/06 13:45:07;;;;;;;3.88;3.20;;;;;;;;;;5088824;28;20659;-71
2023/09/06 13:47:35;;;;;;;3.00;2.70;;;;;;;;;;5096730;28;20308;-70
2023/09/06 13:50:04;;;;;;;4.25;3.15;;;;;;;;;;5097791;28;20237;-70
2023/09/06 13:52:33;;;;;;;5.13;3.13;;;;;;;;;;5097341;28;20247;-70
2023/09/06 13:55:01;;;;;;;3.88;3.20;;;;;;;;;;5097549;28;20198;-70
2023/09/06 13:57:29;;;;;;;9.77;3.78;;;;;;;;;;5097011;28;20225;-69
2023/09/06 13:59:57;;;;;;;5.72;3.88;;;;;;;;;;5098045;28;20225;-69
2023/09/06 14:02:25;;;;;;;3.38;3.08;;;;;;;;;;5097686;28;20258;-70
2023/09/06 14:04:56;;;;;;;5.80;3.47;;;;;;;;;;5097482;28;20615;-68
2023/09/06 14:07:24;;;;;;;4.32;2.90;;;;;;;;;;5097511;28;20315;-69
2023/09/06 14:09:54;;;;;;;4.13;3.38;;;;;;;;;;5097798;28;20205;-68
2023/09/06 14:12:22;;;;;;;5.13;3.05;;;;;;;;;;5098040;28;20205;-69
2023/09/06 14:14:51;;;;;;;4.60;3.33;;;;;;;;;;5097609;28;20243;-70
2023/09/06 14:17:19;;;;;;;4.28;3.05;;;;;;;;;;5097980;28;20197;-70
2023/09/06 14:19:47;;;;;;;3.40;2.78;;;;;;;;;;5097290;28;20232;-69
2023/09/06 14:22:15;;;;;;;7.70;3.40;;;;;;;;;;5097793;28;20264;-70
2023/09/06 14:24:43;;;;;;;10.27;3.72;;;;;;;;;;5097717;28;20608;-70
2023/09/06 14:27:13;;;;;;;7.97;3.65;;;;;;;;;;5097739;28;20236;-68
2023/09/06 14:29:41;;;;;;;4.13;3.00;;;;;;;;;;5097393;28;20521;-69
2023/09/06 14:32:09;;;;;;;4.32;3.17;;;;;;;;;;5097804;28;20205;-70
2023/09/06 14:34:37;;;;;;;4.53;2.75;;;;;;;;;;5097783;28;20205;-69
2023/09/06 14:37:05;;;;;;;8.50;2.92;;;;;;;;;;5097535;28;20216;-68
2023/09/06 14:39:34;;;;;;;7.90;3.03;;;;;;;;;;5097417;28;20618;-69
2023/09/06 14:42:02;;;;;;;3.30;2.75;;;;;;;;;;5097693;28;20201;-70
2023/09/06 14:44:34;;;;;;;3.80;2.97;;;;;;;;;;5097462;28;20201;-68
2023/09/06 14:47:03;;;;;;;4.68;2.95;;;;;;;;;;5097653;28;20327;-70
2023/09/06 14:49:33;;;;;;;3.90;3.28;;;;;;;;;;5097174;28;20211;-68
2023/09/06 14:52:01;;;;;;;4.35;3.22;;;;;;;;;;5097389;28;20205;-69
2023/09/06 14:54:29;;;;;;;5.75;3.10;;;;;;;;;;5097576;28;20227;-69
2023/09/06 14:56:58;;;;;;;7.45;3.00;;;;;;;;;;5097342;28;20237;-69